Pilot Grove, Iowa
Current Conditions -  °F | °C
As of 11:15 AM on Sunday 23 Nov 2014 (Local Time) from KFSW Reporting Station
Heavy Rain Heavy Rain  
Wind Chill: 54°   Ceiling: 500
Heat Index: 54°   Visibility: 2mi
Dew Point: 52°   Wind: 6mph
Humidity: 94%   Direction: 170°S
Pressure: 29.52"   Gusts: NA
Location:  40.76°N, 91.54°W
Report Text: KFSW 231715Z AUTO 17005KT 2SM +RA OVC005 12/11 A2952 RMK AO2
Loading
Personal Weather Stations






























Interactive Weather Map New forecast layout! Learn more

10-Day Weather Forecast

Advertisements
Track Severe Weather on mobile